Terminal Aerodrome Forecast
Issued by NWS

Home | Current Version | Previous Version | Text Only | Print | Product List | Glossary On
Versions: 1 2 3 4 5 6 7 8 9 10 11 12
056
FTUS42 KMLB 222341
TAFTIX
TAF
KTIX 222341Z 2300/2324 13014KT P6SM FEW060 BKN120 BKN250
     FM230300 18005KT P6SM BKN080 BKN250
     FM231400 22014G20KT P6SM BKN100=

USA.gov is the U.S. government's official web portal to all federal, state and local government web resources and services.